EDT,Max TemperatureF,Mean TemperatureF,Min TemperatureF,Max Dew PointF,MeanDew PointF,Min DewpointF,Max Humidity, Mean Humidity, Min Humidity, Max Sea Level PressureIn, Mean Sea Level PressureIn, Min Sea Level PressureIn, Max VisibilityMiles, Mean VisibilityMiles, Min VisibilityMiles, Max Wind SpeedMPH, Mean Wind SpeedMPH, Max Gust SpeedMPH,PrecipitationIn, CloudCover, Events, WindDirDegrees
2013-5-1,75,62,50,54,52,48,100,68,41,30.27,30.21,30.15,10,10,9,13,3,18,0.00,0,,100
2013-5-2,73,63,53,54,51,48,88,60,44,30.27,30.22,30.17,10,10,10,9,5,16,0.00,2,,95
2013-5-3,71,62,53,50,47,39,82,60,35,30.21,30.13,30.06,10,10,10,15,6,23,0.00,1,,93
2013-5-4,66,58,50,50,42,32,100,55,41,30.06,30.01,29.96,10,10,4,17,10,26,0.15,4,Rain,85
2013-5-5,55,52,48,54,50,46,100,93,82,30.01,29.89,29.85,10,7,2,12,7,18,0.64,6,Rain,65
2013-5-6,66,57,48,55,51,48,100,86,56,29.94,29.85,29.80,10,8,2,12,3,16,0.45,5,Rain-Thunderstorm,58
2013-5-7,62,53,44,57,51,45,100,94,72,29.99,29.96,29.90,10,7,0,5,0,,0.17,5,Fog-Rain,240
2013-5-8,68,60,51,59,55,52,100,89,56,30.09,30.02,29.95,10,6,0,10,1,16,0.09,6,Fog-Rain,269
2013-5-9,77,64,50,61,56,50,100,77,44,30.15,30.11,30.07,10,8,0,9,1,,0.00,3,Fog-Rain,231
2013-5-10,73,62,50,61,56,50,100,83,56,30.12,30.05,29.98,10,8,0,14,2,21,0.00,2,Fog-Rain,236
2013-5-11,69,61,53,63,57,48,100,85,64,30.01,29.95,29.90,10,8,2,14,2,22,0.32,5,Rain,268
2013-5-12,60,50,41,52,38,28,100,62,29,30.15,30.07,30.00,10,10,3,12,2,18,0.02,4,Rain,302
2013-5-13,62,47,32,39,32,27,100,62,26,30.25,30.19,30.15,10,10,8,14,2,24,0.00,1,,287
2013-5-14,75,54,33,54,42,34,100,66,34,30.27,30.17,30.05,10,10,10,14,2,17,0.00,0,,227
2013-5-15,84,67,50,59,54,50,100,68,35,30.17,30.09,30.01,10,9,0,14,2,20,0.00,0,Fog,232
2013-5-16,80,65,50,63,55,50,100,76,39,30.10,30.06,30.02,10,9,2,10,1,21,0.30,1,Rain-Thunderstorm,257
2013-5-17,78,66,55,66,60,55,100,83,51,30.15,30.10,30.06,10,8,1,0,0,,0.00,1,,-1
2013-5-18,71,66,60,66,64,59,100,97,73,30.13,30.10,30.06,10,6,1,5,0,,0.35,6,Rain-Thunderstorm,96
2013-5-19,73,68,60,68,65,61,100,93,78,30.12,30.08,30.03,10,8,0,23,1,34,1.03,5,Rain-Thunderstorm,233
2013-5-20,82,70,59,68,63,59,100,85,54,30.18,30.10,30.04,10,7,0,8,1,,0.00,4,Fog-Thunderstorm,186
2013-5-21,84,72,59,68,63,59,100,83,51,30.11,30.04,29.97,10,7,0,23,1,30,0.03,3,Fog-Rain-Thunderstorm,181
2013-5-22,84,70,57,66,62,57,100,78,42,30.03,29.96,29.89,10,10,7,12,2,20,0.00,3,Rain-Thunderstorm,197
2013-5-23,77,68,59,66,60,54,100,82,50,30.05,29.97,29.91,10,8,0,13,2,23,0.35,5,Fog-Rain,272
2013-5-24,66,56,46,57,45,37,100,68,37,30.32,30.21,30.04,10,10,2,12,4,20,0.02,3,Rain,342
2013-5-25,69,53,37,48,41,32,100,64,25,30.40,30.32,30.23,10,10,3,7,1,,0.00,0,,331
2013-5-26,73,63,53,55,47,41,94,61,35,30.33,30.28,30.23,10,10,10,9,1,,0.00,1,Rain,238
2013-5-27,82,65,48,61,53,48,100,69,37,30.28,30.21,30.13,10,10,10,14,2,18,0.00,0,,231
2013-5-28,84,70,55,64,58,55,100,71,37,30.24,30.17,30.12,10,10,9,13,2,18,0.00,0,,233
2013-5-29,84,68,53,66,60,54,100,74,40,30.27,30.20,30.15,10,10,7,9,1,,0.00,1,,223
2013-5-30,86,72,57,66,59,55,100,65,35,30.29,30.21,30.14,10,10,8,8,1,,0.00,1,,148
2013-5-31,86,72,57,64,60,57,100,66,40,30.22,30.17,30.10,10,10,9,12,3,17,0.00,0,,195